Terminal Aerodrome Forecast
Issued by NWS Cleveland, OH

Home | Current Version | Previous Version | Text Only | Print | Product List | Glossary Off
Versions: 1 2 3 4 5 6 7 8 9 10 11 12 13 14 15 16 17

000
FTUS41 KCLE 181100 AAA
TAFYNG
TAF AMD
KYNG 181156Z 1812/1912 26010KT P6SM OVC015
     FM181500 27008KT P6SM OVC025
     FM182200 27008KT P6SM OVC035
     FM190400 27005KT P6SM OVC025=

USA.gov is the U.S. government's official web portal to all federal, state and local government web resources and services.